Time;durP1;ratioP1;P1;durP2;ratioP2;P2;SDS_P1;SDS_P2;PMS_P1;PMS_P2;Temp;Humidity;BMP_temperature;BMP_pressure;BME280_temperature;BME280_humidity;BME280_pressure;Samples;Min_cycle;Max_cycle;Signal;HPM_P1;HPM_P2
2020/12/24 00:02:23;;;;;;;1.40;0.60;;;10.20;99.90;;;;;;10481155;27;88406;-71
2020/12/24 00:07:24;;;;;;;0.80;0.60;;;10.20;99.90;;;;;;10471809;27;88737;-72
2020/12/24 00:12:26;;;;;;;1.60;0.60;;;10.20;99.90;;;;;;10442049;27;87931;-70
2020/12/24 00:17:29;;;;;;;0.60;0.60;;;10.10;99.90;;;;;;10443177;27;88522;-70
2020/12/24 00:22:30;;;;;;;0.50;0.50;;;10.10;99.90;;;;;;10442117;27;88161;-73
2020/12/24 00:27:32;;;;;;;1.63;0.50;;;10.00;99.90;;;;;;10436614;27;88655;-72
2020/12/24 00:32:35;;;;;;;1.80;0.50;;;9.90;99.90;;;;;;10442979;27;88899;-71
2020/12/24 00:37:36;;;;;;;1.00;0.50;;;9.90;99.90;;;;;;10436791;27;87595;-70
2020/12/24 00:42:38;;;;;;;0.50;0.50;;;9.80;99.90;;;;;;10451167;27;88586;-70
2020/12/24 00:47:40;;;;;;;1.37;0.53;;;9.70;99.90;;;;;;10434305;27;90403;-70
2020/12/24 00:52:42;;;;;;;0.83;0.50;;;9.70;99.90;;;;;;10438744;27;87862;-71
2020/12/24 00:57:44;;;;;;;1.00;0.60;;;9.60;99.90;;;;;;10435685;27;88589;-70
2020/12/24 01:02:47;;;;;;;0.53;0.50;;;9.60;99.90;;;;;;10435475;27;90417;-70
2020/12/24 01:07:48;;;;;;;0.80;0.80;;;9.60;99.90;;;;;;10448901;27;89593;-70
2020/12/24 01:12:50;;;;;;;1.80;0.60;;;9.60;99.90;;;;;;10441991;27;87964;-70
2020/12/24 01:17:52;;;;;;;1.00;0.70;;;9.60;99.90;;;;;;10437175;27;88245;-70
2020/12/24 01:22:54;;;;;;;0.50;0.50;;;9.50;99.90;;;;;;10449692;27;88428;-72
2020/12/24 01:27:56;;;;;;;0.60;0.60;;;9.50;99.90;;;;;;10435131;27;88820;-70
2020/12/24 01:33:01;;;;;;;0.50;0.50;;;9.40;99.90;;;;;;10453008;27;87165;-71
2020/12/24 01:38:06;;;;;;;1.17;0.70;;;9.40;99.90;;;;;;10461682;27;88794;-71
2020/12/24 01:43:08;;;;;;;0.50;0.50;;;9.40;99.90;;;;;;10448259;27;88741;-71
2020/12/24 01:48:13;;;;;;;2.77;0.60;;;9.40;99.90;;;;;;10430828;27;88967;-71
2020/12/24 01:53:20;;;;;;;0.97;0.60;;;9.30;99.90;;;;;;10431211;27;89460;-71
2020/12/24 01:58:22;;;;;;;0.60;0.60;;;9.30;99.90;;;;;;10448911;27;88461;-71
2020/12/24 02:03:24;;;;;;;1.07;0.60;;;9.30;99.90;;;;;;10425157;27;88595;-71
2020/12/24 02:08:26;;;;;;;2.97;2.33;;;9.20;99.90;;;;;;10435942;27;87687;-71
2020/12/24 02:13:27;;;;;;;0.67;0.60;;;9.20;99.90;;;;;;10434111;27;87610;-71
2020/12/24 02:18:33;;;;;;;0.50;0.50;;;9.10;99.90;;;;;;10432807;27;88676;-70
2020/12/24 02:23:35;;;;;;;1.13;0.50;;;9.10;99.90;;;;;;10434403;27;87793;-70
2020/12/24 02:28:37;;;;;;;0.50;0.50;;;9.10;99.90;;;;;;10440264;27;87480;-70
2020/12/24 02:33:39;;;;;;;0.40;0.40;;;9.00;99.90;;;;;;10439300;27;87744;-70
2020/12/24 02:38:41;;;;;;;0.70;0.53;;;9.00;99.90;;;;;;10437536;27;88168;-71
2020/12/24 02:43:45;;;;;;;0.40;0.40;;;8.80;99.90;;;;;;10438890;27;88453;-70
2020/12/24 02:48:47;;;;;;;0.50;0.50;;;8.80;99.90;;;;;;10436495;27;89697;-71
2020/12/24 02:53:50;;;;;;;0.50;0.40;;;8.60;99.90;;;;;;10436165;27;87875;-71
2020/12/24 02:58:51;;;;;;;0.40;0.40;;;8.50;99.90;;;;;;10441263;27;88670;-71
2020/12/24 03:03:53;;;;;;;1.03;0.50;;;8.30;99.90;;;;;;10408807;27;90325;-71
2020/12/24 03:08:55;;;;;;;0.40;0.40;;;8.20;99.90;;;;;;10391811;27;89033;-71
2020/12/24 03:13:57;;;;;;;0.70;0.70;;;8.10;99.90;;;;;;10391162;27;89738;-74
2020/12/24 03:18:59;;;;;;;0.70;0.50;;;8.10;99.90;;;;;;10389835;27;89009;-71
2020/12/24 03:24:01;;;;;;;0.80;0.57;;;8.10;99.90;;;;;;10400715;27;88243;-71
2020/12/24 03:29:03;;;;;;;0.50;0.50;;;8.10;99.90;;;;;;10390096;27;89102;-71
2020/12/24 03:34:05;;;;;;;0.40;0.40;;;8.00;99.90;;;;;;10393076;27;88803;-71
2020/12/24 03:39:10;;;;;;;0.50;0.50;;;8.00;99.90;;;;;;10393717;27;90215;-71
2020/12/24 03:44:12;;;;;;;5.10;0.60;;;8.00;99.90;;;;;;10398160;27;88565;-71
2020/12/24 03:49:14;;;;;;;0.40;0.40;;;7.90;99.90;;;;;;10397492;27;89036;-70
2020/12/24 03:54:16;;;;;;;0.50;0.50;;;7.90;99.90;;;;;;10381615;27;90890;-71
2020/12/24 03:59:19;;;;;;;0.50;0.50;;;7.90;99.90;;;;;;10397518;27;89730;-70
2020/12/24 04:04:20;;;;;;;0.60;0.43;;;7.90;99.90;;;;;;10393487;27;89058;-71
2020/12/24 04:09:23;;;;;;;0.50;0.50;;;7.80;99.90;;;;;;10393940;27;89049;-71
2020/12/24 04:14:24;;;;;;;0.60;0.50;;;7.80;99.90;;;;;;10402068;27;88644;-70
2020/12/24 04:19:26;;;;;;;0.50;0.50;;;7.70;99.90;;;;;;10396978;27;90257;-70
2020/12/24 04:24:28;;;;;;;0.43;0.43;;;7.70;99.90;;;;;;10398918;27;88989;-70
2020/12/24 04:29:30;;;;;;;0.60;0.60;;;7.60;99.90;;;;;;10398168;27;89791;-70
2020/12/24 04:34:32;;;;;;;0.60;0.60;;;7.50;99.90;;;;;;10399372;27;88980;-71
2020/12/24 04:39:34;;;;;;;0.50;0.50;;;7.50;99.90;;;;;;10402940;27;87604;-71
2020/12/24 04:44:36;;;;;;;0.90;0.50;;;7.50;99.90;;;;;;10396009;27;90117;-71
2020/12/24 04:49:40;;;;;;;1.53;0.50;;;7.50;99.90;;;;;;10431487;27;90267;-71
2020/12/24 04:54:43;;;;;;;0.70;0.70;;;7.50;99.90;;;;;;10387398;27;90358;-70
2020/12/24 04:59:45;;;;;;;0.50;0.50;;;7.50;99.90;;;;;;10396404;27;90059;-70
2020/12/24 05:04:46;;;;;;;1.83;0.40;;;7.60;99.90;;;;;;10383413;27;90175;-71
2020/12/24 05:09:50;;;;;;;0.50;0.50;;;7.60;99.90;;;;;;10394359;27;89108;-71
2020/12/24 05:14:52;;;;;;;5.27;1.57;;;7.60;99.90;;;;;;10393995;27;89043;-71
2020/12/24 05:20:03;;;;;;;1.37;1.27;;;7.50;99.90;;;;;;10390812;27;89976;-71
2020/12/24 05:25:11;;;;;;;0.67;0.63;;;7.50;99.90;;;;;;10391427;27;89416;-71
2020/12/24 05:30:24;;;;;;;0.80;0.60;;;7.40;99.90;;;;;;10392859;27;89733;-71
2020/12/24 05:35:28;;;;;;;0.50;0.50;;;7.40;99.90;;;;;;10417366;27;89365;-71
2020/12/24 05:40:32;;;;;;;0.80;0.80;;;7.30;99.90;;;;;;10439377;27;87572;-71
2020/12/24 05:45:34;;;;;;;0.80;0.63;;;7.30;99.90;;;;;;10436591;27;88810;-71
2020/12/24 05:50:36;;;;;;;2.00;0.67;;;7.40;99.90;;;;;;10436850;27;87818;-71
2020/12/24 05:55:40;;;;;;;0.77;0.77;;;7.40;99.90;;;;;;10436921;27;86900;-70
2020/12/24 06:00:42;;;;;;;0.73;0.73;;;7.40;99.90;;;;;;10450873;27;87570;-71
2020/12/24 06:05:56;;;;;;;0.60;0.60;;;7.40;99.90;;;;;;10472143;27;86897;-70
2020/12/24 06:11:04;;;;;;;0.87;0.50;;;7.40;99.90;;;;;;10437187;27;89784;-71
2020/12/24 06:16:07;;;;;;;0.77;0.67;;;7.50;99.90;;;;;;10435993;27;88109;-70
2020/12/24 06:21:17;;;;;;;0.70;0.70;;;7.40;99.90;;;;;;10438615;27;87851;-71
2020/12/24 06:26:23;;;;;;;0.80;0.80;;;7.40;99.90;;;;;;10440901;27;87464;-71
2020/12/24 06:31:25;;;;;;;0.73;0.73;;;7.30;99.90;;;;;;10452135;27;88708;-71
2020/12/24 06:36:32;;;;;;;2.67;0.97;;;7.30;99.90;;;;;;10436325;27;88774;-71
2020/12/24 06:41:37;;;;;;;1.07;0.80;;;7.30;99.90;;;;;;10441769;27;89521;-72
2020/12/24 06:46:58;;;;;;;2.00;0.70;;;7.30;99.90;;;;;;10448250;27;88594;-71
2020/12/24 06:52:00;;;;;;;2.17;0.70;;;7.30;99.90;;;;;;10451400;27;87573;-71
2020/12/24 06:57:22;;;;;;;0.83;0.83;;;7.30;99.90;;;;;;10439737;27;89634;-71
2020/12/24 07:02:24;;;;;;;0.43;0.43;;;7.40;99.90;;;;;;10444889;27;88641;-71
2020/12/24 07:07:45;;;;;;;0.80;0.80;;;7.40;99.90;;;;;;10441981;27;87844;-71
2020/12/24 07:12:53;;;;;;;2.67;0.90;;;7.50;99.90;;;;;;10449261;27;87587;-71
2020/12/24 07:17:56;;;;;;;1.30;0.73;;;7.40;99.90;;;;;;10439754;27;88202;-71
2020/12/24 07:22:58;;;;;;;4.67;1.70;;;7.40;99.90;;;;;;10448981;27;87687;-71
2020/12/24 07:28:04;;;;;;;2.30;1.20;;;7.40;99.90;;;;;;10449124;27;87626;-71
2020/12/24 07:33:05;;;;;;;1.30;1.20;;;7.40;99.90;;;;;;10449072;27;87568;-71
2020/12/24 07:38:09;;;;;;;1.60;1.03;;;7.40;99.90;;;;;;10439550;27;86836;-71
2020/12/24 07:43:13;;;;;;;1.03;0.90;;;7.30;99.90;;;;;;10440900;27;87968;-71
2020/12/24 07:48:16;;;;;;;3.47;1.00;;;7.30;99.90;;;;;;10460082;27;90396;-71
2020/12/24 07:53:18;;;;;;;1.30;1.10;;;7.30;99.90;;;;;;10487346;27;89042;-72
2020/12/24 07:58:21;;;;;;;8.00;1.30;;;7.20;99.90;;;;;;10484767;27;89395;-71
2020/12/24 08:03:23;;;;;;;6.90;2.30;;;7.20;99.90;;;;;;10484873;27;87550;-71
2020/12/24 08:08:25;;;;;;;4.07;1.60;;;7.30;99.90;;;;;;10486248;27;87598;-71
2020/12/24 08:13:27;;;;;;;7.77;3.93;;;7.40;99.90;;;;;;10489303;27;87682;-71
2020/12/24 08:18:35;;;;;;;3.63;1.23;;;7.40;99.90;;;;;;10479413;27;88610;-71
2020/12/24 08:23:47;;;;;;;0.80;0.80;;;7.70;99.90;;;;;;10487958;27;86965;-71
2020/12/24 08:28:54;;;;;;;0.93;0.67;;;8.00;99.90;;;;;;10486594;27;88445;-71
2020/12/24 08:33:56;;;;;;;1.23;0.80;;;8.30;99.90;;;;;;10476808;27;89868;-72
2020/12/24 08:39:06;;;;;;;1.13;0.70;;;8.50;99.90;;;;;;10484199;27;87876;-72
2020/12/24 08:44:16;;;;;;;6.70;0.70;;;8.70;99.90;;;;;;10481948;27;88700;-72
2020/12/24 08:49:23;;;;;;;1.13;0.70;;;9.00;99.90;;;;;;10481669;27;88638;-73
2020/12/24 08:54:24;;;;;;;1.20;0.60;;;9.20;99.90;;;;;;10484237;27;87588;-73
2020/12/24 08:59:29;;;;;;;0.70;0.70;;;9.40;99.60;;;;;;10485526;27;87456;-72
2020/12/24 09:04:31;;;;;;;1.60;0.70;;;9.50;99.30;;;;;;10466590;27;88863;-72
2020/12/24 10:00:26;;;;;;;28.90;19.40;;;11.30;94.60;;;;;;10174303;28;87352;-92
2020/12/24 10:05:30;;;;;;;3.60;1.77;;;12.90;93.50;;;;;;10159792;28;89852;-93
2020/12/24 10:10:56;;;;;;;2.53;1.52;;;14.10;92.90;;;;;;10185196;28;89454;-94
2020/12/24 10:34:39;;;;;;;70.72;48.65;;;18.80;81.30;;;;;;9792106;29;90055;-93
2020/12/24 10:39:52;;;;;;;15.90;13.05;;;19.40;75.80;;;;;;9784047;29;87361;-90
2020/12/24 11:38:10;;;;;;;2.30;0.87;;;11.90;71.60;;;;;;9808560;29;87469;-91
2020/12/24 11:43:12;;;;;;;1.33;0.90;;;11.50;74.10;;;;;;9848891;29;90049;-88
2020/12/24 11:48:13;;;;;;;0.50;0.50;;;11.20;77.00;;;;;;9930316;29;89723;-90
2020/12/24 11:53:16;;;;;;;1.00;0.80;;;11.10;79.10;;;;;;9929202;29;90184;-89
2020/12/24 11:58:18;;;;;;;2.20;0.83;;;11.00;81.10;;;;;;9931002;29;90959;-90
2020/12/24 12:03:20;;;;;;;1.23;0.67;;;10.90;82.60;;;;;;9936709;29;91226;-89
2020/12/24 12:08:23;;;;;;;1.93;1.00;;;10.80;84.50;;;;;;10153459;28;90610;-90
2020/12/24 12:13:25;;;;;;;1.00;1.00;;;10.70;86.20;;;;;;10175063;28;90598;-92
2020/12/24 12:18:27;;;;;;;0.87;0.83;;;10.70;87.60;;;;;;10078964;28;90494;-91
2020/12/24 12:23:30;;;;;;;3.00;1.40;;;10.70;89.10;;;;;;10085705;28;90110;-92
2020/12/24 12:28:32;;;;;;;31.33;19.73;;;10.80;90.00;;;;;;10081134;28;87043;-91
2020/12/24 12:33:36;;;;;;;51.30;34.27;;;10.90;90.30;;;;;;10104523;28;87135;-92
2020/12/24 12:38:39;;;;;;;129.03;80.30;;;10.90;90.80;;;;;;10022044;29;89995;-92
2020/12/24 12:43:41;;;;;;;34.63;24.27;;;10.60;91.10;;;;;;9924865;29;90077;-91
2020/12/24 12:48:43;;;;;;;5.00;4.60;;;10.50;91.60;;;;;;9980812;29;90376;-89
2020/12/24 12:53:46;;;;;;;16.30;12.10;;;10.30;92.30;;;;;;10029691;29;91225;-89
2020/12/24 12:58:52;;;;;;;1.33;1.30;;;10.20;92.70;;;;;;10030705;29;90310;-95
2020/12/24 13:03:59;;;;;;;11.40;9.37;;;10.20;92.90;;;;;;10038669;29;90187;-94
2020/12/24 13:09:02;;;;;;;4.63;4.23;;;10.20;93.30;;;;;;10054212;29;89642;-93
2020/12/24 13:14:04;;;;;;;19.00;14.80;;;10.00;93.60;;;;;;10053882;29;89415;-92
2020/12/24 13:19:07;;;;;;;110.20;70.10;;;9.90;94.00;;;;;;10104137;28;89055;-94
2020/12/24 13:24:10;;;;;;;16.40;10.93;;;9.80;94.30;;;;;;10136742;28;90206;-93
2020/12/24 13:29:12;;;;;;;6.13;4.30;;;9.80;94.50;;;;;;10136138;28;88049;-92
2020/12/24 13:34:18;;;;;;;5.37;4.93;;;9.80;94.70;;;;;;10125885;28;90499;-94
2020/12/24 13:39:48;;;;;;;1.27;1.17;;;9.80;94.70;;;;;;10075355;28;88320;-92
2020/12/24 14:55:33;;;;;;;;;;;;;;;;;;;;;
2020/12/24 15:38:49;;;;;;;24.70;19.60;;;8.90;96.20;;;;;;12566497;22;1022097;-93
2020/12/24 15:44:06;;;;;;;193.77;119.73;;;8.70;96.70;;;;;;12595262;23;83190;-94
2020/12/24 18:25:56;;;;;;;548.23;466.27;;;7.30;99.90;;;;;;12611959;22;86798;-72
2020/12/24 18:30:58;;;;;;;600.30;520.47;;;7.30;99.90;;;;;;12602674;23;85163;-71
2020/12/24 18:35:59;;;;;;;452.77;377.63;;;7.30;99.90;;;;;;12624198;23;84978;-70
2020/12/24 18:41:02;;;;;;;526.17;447.13;;;7.30;99.90;;;;;;12627288;23;85140;-70
2020/12/24 18:46:03;;;;;;;611.07;535.07;;;7.30;99.90;;;;;;12626554;23;85665;-70
2020/12/24 18:51:05;;;;;;;505.97;402.73;;;7.30;99.90;;;;;;12628394;23;85248;-70
2020/12/24 18:56:10;;;;;;;419.87;307.80;;;7.30;99.90;;;;;;12625909;23;85316;-70
2020/12/24 19:01:12;;;;;;;355.93;238.80;;;7.20;99.90;;;;;;12627800;23;85449;-70
2020/12/24 19:06:14;;;;;;;220.07;135.17;;;7.20;99.90;;;;;;12624638;23;85532;-68
2020/12/24 19:11:23;;;;;;;3.53;3.10;;;7.20;99.90;;;;;;12626639;23;84979;-71
2020/12/24 19:16:25;;;;;;;74.03;46.83;;;7.30;99.90;;;;;;12632072;23;80787;-70
2020/12/24 19:21:27;;;;;;;41.40;28.17;;;7.20;99.90;;;;;;12628598;23;83463;-71
2020/12/24 19:26:30;;;;;;;62.37;40.27;;;7.20;99.90;;;;;;12629198;23;83172;-72
2020/12/24 19:31:35;;;;;;;112.23;69.40;;;7.20;99.90;;;;;;12627690;23;82916;-71
2020/12/24 19:36:36;;;;;;;83.57;52.87;;;7.20;99.90;;;;;;12630678;23;82512;-72
2020/12/24 19:41:39;;;;;;;135.63;82.37;;;7.10;99.90;;;;;;12601095;23;82627;-72
2020/12/24 19:46:42;;;;;;;133.97;83.50;;;7.10;99.90;;;;;;12630959;23;82491;-71
2020/12/24 19:51:43;;;;;;;138.00;88.60;;;7.10;99.90;;;;;;12629408;23;82509;-72
2020/12/24 19:56:46;;;;;;;51.93;35.57;;;7.10;99.90;;;;;;12630460;23;82746;-71
2020/12/24 20:01:57;;;;;;;82.10;52.50;;;7.20;99.90;;;;;;12630591;23;82875;-71
2020/12/24 20:07:01;;;;;;;100.23;60.80;;;7.20;99.90;;;;;;12631398;23;82474;-72
2020/12/24 20:12:04;;;;;;;108.30;68.70;;;7.20;99.90;;;;;;12627631;23;82531;-72
2020/12/24 20:17:08;;;;;;;68.30;44.27;;;7.20;99.90;;;;;;12633065;23;82524;-72
2020/12/24 20:22:10;;;;;;;93.90;59.70;;;7.20;99.90;;;;;;12631463;23;82655;-72
2020/12/24 20:27:15;;;;;;;133.53;83.93;;;7.10;99.90;;;;;;12632884;23;82889;-73
2020/12/24 20:32:16;;;;;;;178.10;113.17;;;7.00;99.90;;;;;;12633214;23;82822;-72
2020/12/24 20:37:18;;;;;;;262.50;170.50;;;6.90;99.90;;;;;;12629093;23;84754;-72
2020/12/24 20:42:20;;;;;;;387.37;284.23;;;6.80;99.90;;;;;;12630605;23;84978;-71
2020/12/24 20:47:22;;;;;;;413.43;314.60;;;6.70;99.90;;;;;;12630620;23;85281;-72
2020/12/24 20:52:24;;;;;;;448.73;353.27;;;6.60;99.90;;;;;;12630151;23;85088;-71
2020/12/24 20:57:26;;;;;;;351.00;237.90;;;6.70;99.90;;;;;;12629993;23;84997;-71
2020/12/24 21:02:28;;;;;;;384.20;281.77;;;6.70;99.90;;;;;;12630648;23;85106;-71
2020/12/24 21:07:30;;;;;;;361.00;250.27;;;6.70;99.90;;;;;;12630071;23;85259;-72
2020/12/24 21:12:33;;;;;;;262.83;175.63;;;6.70;99.90;;;;;;12630974;23;84908;-71
2020/12/24 21:17:35;;;;;;;545.73;482.37;;;6.70;99.90;;;;;;12630421;23;85167;-71
2020/12/24 21:22:37;;;;;;;452.40;374.83;;;6.60;99.90;;;;;;12630559;23;85044;-71
2020/12/24 21:27:39;;;;;;;697.10;622.73;;;6.50;99.90;;;;;;12629489;23;84863;-72
2020/12/24 21:32:41;;;;;;;564.93;502.97;;;6.40;99.90;;;;;;12630584;23;85429;-71
2020/12/24 21:37:43;;;;;;;238.10;168.37;;;6.30;99.90;;;;;;12630958;23;85401;-72
2020/12/24 21:42:46;;;;;;;382.90;286.77;;;6.30;99.90;;;;;;12630104;23;84962;-72
2020/12/24 21:47:48;;;;;;;374.60;266.87;;;6.20;99.90;;;;;;12628230;23;85433;-72
2020/12/24 21:52:51;;;;;;;304.30;219.53;;;6.20;99.90;;;;;;12625047;23;85656;-72
2020/12/24 21:57:54;;;;;;;325.23;224.23;;;6.10;99.90;;;;;;12600609;23;85450;-72
2020/12/24 22:03:00;;;;;;;527.73;462.60;;;6.10;99.90;;;;;;12625820;23;84873;-72
2020/12/24 22:08:02;;;;;;;266.90;176.63;;;6.00;99.90;;;;;;12626099;23;85062;-73
2020/12/24 22:13:07;;;;;;;398.57;293.70;;;5.90;99.90;;;;;;12627244;23;85395;-73
2020/12/24 22:18:09;;;;;;;776.23;696.93;;;5.70;99.90;;;;;;12599673;23;85111;-73
2020/12/24 22:23:11;;;;;;;618.13;551.73;;;5.70;99.90;;;;;;12627805;23;85698;-73
2020/12/24 22:28:14;;;;;;;375.07;297.43;;;5.60;99.90;;;;;;12621872;23;85260;-74
2020/12/24 22:33:16;;;;;;;297.67;233.60;;;5.50;99.90;;;;;;12625426;23;85267;-73
2020/12/24 22:38:18;;;;;;;204.60;136.73;;;5.40;99.90;;;;;;12628030;23;84791;-73
2020/12/24 22:43:20;;;;;;;327.27;254.87;;;5.30;99.90;;;;;;12625385;23;85294;-74
2020/12/24 22:48:22;;;;;;;816.20;732.17;;;5.30;99.90;;;;;;12600246;23;85161;-74
2020/12/24 22:53:24;;;;;;;725.73;651.43;;;5.30;99.90;;;;;;12624121;23;85225;-73
2020/12/24 22:58:26;;;;;;;623.73;557.80;;;5.20;99.90;;;;;;12626549;23;85219;-74
2020/12/24 23:03:28;;;;;;;443.43;349.40;;;5.20;99.90;;;;;;12628637;23;84997;-73
2020/12/24 23:08:30;;;;;;;841.70;759.47;;;5.10;99.90;;;;;;12628533;23;85305;-74
2020/12/24 23:13:32;;;;;;;562.77;500.97;;;5.10;99.90;;;;;;12629246;23;85179;-74
2020/12/24 23:18:34;;;;;;;330.20;230.17;;;5.10;99.90;;;;;;12627488;23;85050;-74
2020/12/24 23:23:36;;;;;;;273.47;186.57;;;5.00;99.90;;;;;;12602493;23;85315;-73
2020/12/24 23:28:38;;;;;;;471.57;386.77;;;5.00;99.90;;;;;;12628430;23;84920;-73
2020/12/24 23:33:40;;;;;;;834.60;753.33;;;4.90;99.90;;;;;;12628786;23;85203;-73
2020/12/24 23:38:43;;;;;;;877.50;791.83;;;4.90;99.90;;;;;;12601186;23;84881;-75
2020/12/24 23:43:45;;;;;;;899.43;804.67;;;4.80;99.90;;;;;;12627636;23;85256;-75
2020/12/24 23:48:47;;;;;;;846.67;765.07;;;4.70;99.90;;;;;;12628428;23;85352;-76
2020/12/24 23:53:49;;;;;;;895.83;805.13;;;4.80;99.90;;;;;;12628990;23;84770;-75
2020/12/24 23:58:51;;;;;;;889.67;798.97;;;4.70;99.90;;;;;;12629952;23;85311;-75
